createdAt,value
2019-02-02T00:02:21.869Z,41.17
2019-02-02T00:04:50.270Z,44.03
2019-02-02T00:07:18.757Z,43.70
2019-02-02T00:09:47.147Z,41.27
2019-02-02T00:12:15.524Z,44.67
2019-02-02T00:14:45.284Z,44.43
2019-02-02T00:17:13.951Z,43.80
2019-02-02T00:19:42.344Z,41.07
2019-02-02T00:22:10.722Z,41.10
2019-02-02T00:24:39.132Z,42.30
2019-02-02T00:27:07.511Z,43.37
2019-02-02T00:29:35.921Z,44.60
2019-02-02T00:32:04.316Z,39.53
2019-02-02T00:34:32.716Z,43.37
2019-02-02T00:37:01.096Z,42.83
2019-02-02T00:39:29.467Z,44.07
2019-02-02T00:41:57.867Z,44.53
2019-02-02T00:44:26.246Z,45.53
2019-02-02T00:46:54.637Z,40.23
2019-02-02T00:49:23.019Z,41.70
2019-02-02T00:51:51.434Z,39.93
2019-02-02T00:54:19.848Z,39.57
2019-02-02T00:56:48.224Z,43.83
2019-02-02T00:59:16.650Z,42.30
2019-02-02T01:01:45.127Z,42.23
2019-02-02T01:04:13.530Z,42.20
2019-02-02T01:06:41.927Z,42.83
2019-02-02T01:09:12.709Z,39.93
2019-02-02T01:11:41.140Z,40.33
2019-02-02T01:14:09.598Z,43.07
2019-02-02T01:16:37.936Z,40.57
2019-02-02T01:19:06.330Z,39.83
2019-02-02T01:21:34.742Z,40.63
2019-02-02T01:24:03.127Z,41.10
2019-02-02T01:26:31.529Z,41.77
2019-02-02T01:28:59.940Z,38.67
2019-02-02T01:31:28.321Z,38.47
2019-02-02T01:33:56.746Z,37.03
2019-02-02T01:36:25.152Z,37.50
2019-02-02T01:38:53.523Z,37.87
2019-02-02T01:41:21.934Z,39.10
2019-02-02T01:43:50.352Z,35.97
2019-02-02T01:46:18.828Z,39.27
2019-02-02T01:48:47.197Z,38.63
2019-02-02T01:51:15.612Z,37.37
2019-02-02T01:53:44.000Z,38.00
2019-02-02T01:56:12.380Z,37.20
2019-02-02T01:58:40.780Z,37.63
2019-02-02T02:01:09.186Z,37.23
2019-02-02T02:03:37.676Z,37.37
2019-02-02T02:06:06.054Z,39.13
2019-02-02T02:08:34.467Z,36.27
2019-02-02T02:11:02.911Z,38.10
2019-02-02T02:13:31.250Z,36.50
2019-02-02T02:16:00.613Z,39.57
2019-02-02T02:18:29.031Z,40.20
2019-02-02T02:20:57.411Z,36.93
2019-02-02T02:23:25.791Z,40.23
2019-02-02T02:25:54.201Z,39.47
2019-02-02T02:28:28.302Z,39.60
2019-02-02T02:30:52.644Z,39.37
2019-02-02T02:33:21.045Z,35.07
2019-02-02T02:35:49.432Z,40.33
2019-02-02T02:38:17.818Z,39.47
2019-02-02T02:40:46.196Z,38.20
2019-02-02T02:43:14.595Z,39.37
2019-02-02T02:45:42.984Z,39.43
2019-02-02T02:48:11.362Z,37.10
2019-02-02T02:50:39.761Z,38.27
2019-02-02T02:53:08.148Z,37.53
2019-02-02T02:55:36.563Z,37.23
2019-02-02T02:58:05.215Z,34.80
2019-02-02T03:00:33.621Z,37.73
2019-02-02T03:03:02.017Z,37.77
2019-02-02T03:05:30.434Z,38.67
2019-02-02T03:07:58.860Z,37.67
2019-02-02T03:10:27.227Z,38.60
2019-02-02T03:12:55.669Z,37.50
2019-02-02T03:15:24.012Z,38.93
2019-02-02T03:17:52.494Z,34.90
2019-02-02T03:20:20.901Z,38.10
2019-02-02T03:22:49.313Z,36.00
2019-02-02T03:25:19.840Z,38.37
2019-02-02T03:27:48.240Z,37.73
2019-02-02T03:30:18.541Z,37.70
2019-02-02T03:32:46.935Z,36.97
2019-02-02T03:35:17.230Z,39.30
2019-02-02T03:37:45.617Z,37.57
2019-02-02T03:40:18.943Z,39.37
2019-02-02T03:42:47.359Z,38.67
2019-02-02T03:45:17.712Z,39.90
2019-02-02T03:47:46.119Z,33.30
2019-02-02T03:50:14.553Z,34.53
2019-02-02T03:52:42.979Z,35.60
2019-02-02T03:55:13.600Z,36.20
2019-02-02T03:57:41.999Z,36.77
2019-02-02T04:00:13.013Z,38.73
2019-02-02T04:02:41.499Z,45.07
2019-02-02T04:05:13.083Z,45.50
2019-02-02T04:07:41.499Z,45.70
2019-02-02T04:10:12.138Z,43.80
2019-02-02T04:12:40.532Z,45.87
2019-02-02T04:15:10.720Z,46.67
2019-02-02T04:17:39.136Z,48.17
2019-02-02T04:20:10.713Z,48.30
2019-02-02T04:22:39.122Z,49.27
2019-02-02T04:25:08.254Z,52.13
2019-02-02T04:27:36.663Z,51.53
2019-02-02T04:30:17.414Z,50.77
2019-02-02T04:32:46.093Z,52.17
2019-02-02T04:35:14.497Z,51.83
2019-02-02T04:37:42.911Z,50.20
2019-02-02T04:40:13.341Z,50.80
2019-02-02T04:42:41.740Z,50.53
2019-02-02T04:45:11.991Z,53.10
2019-02-02T04:47:40.391Z,52.27
2019-02-02T04:50:13.619Z,49.27
2019-02-02T04:52:42.032Z,51.20
2019-02-02T04:55:12.149Z,52.37
2019-02-02T04:57:40.532Z,52.27
2019-02-02T05:00:12.122Z,50.33
2019-02-02T05:02:40.507Z,48.13
2019-02-02T05:05:11.907Z,48.90
2019-02-02T05:07:40.288Z,51.37
2019-02-02T05:10:12.006Z,48.57
2019-02-02T05:12:40.385Z,49.67
2019-02-02T05:15:08.953Z,49.27
2019-02-02T05:17:37.371Z,51.77
2019-02-02T05:20:09.283Z,51.10
2019-02-02T05:22:37.658Z,48.33
2019-02-02T05:25:07.504Z,49.13
2019-02-02T05:27:35.885Z,41.37
2019-02-02T05:30:07.695Z,46.27
2019-02-02T05:32:36.099Z,46.57
2019-02-02T05:35:07.318Z,45.70
2019-02-02T05:37:35.718Z,47.60
2019-02-02T05:40:06.915Z,45.73
2019-02-02T05:42:35.328Z,44.10
2019-02-02T05:45:04.374Z,43.10
2019-02-02T05:47:32.790Z,45.77
2019-02-02T05:50:01.188Z,46.73
2019-02-02T05:52:29.587Z,43.77
2019-02-02T05:54:57.986Z,48.70
2019-02-02T05:57:26.382Z,43.43
2019-02-02T05:59:54.761Z,43.97
2019-02-02T06:02:23.176Z,41.00
2019-02-02T06:04:51.567Z,43.60
2019-02-02T06:07:19.952Z,44.60
2019-02-02T06:09:48.314Z,44.53
2019-02-02T06:12:16.733Z,45.53
2019-02-02T06:14:45.113Z,45.83
2019-02-02T06:17:13.534Z,43.67
2019-02-02T06:19:42.017Z,43.53
2019-02-02T06:22:10.400Z,41.77
2019-02-02T06:24:38.794Z,46.30
2019-02-02T06:27:07.167Z,43.40
2019-02-02T06:29:35.549Z,43.70
2019-02-02T06:32:11.399Z,42.60
2019-02-02T06:34:33.977Z,40.87
2019-02-02T06:37:02.388Z,39.33
2019-02-02T06:39:30.762Z,38.50
2019-02-02T06:41:59.172Z,41.13
2019-02-02T06:44:27.549Z,44.80
2019-02-02T06:46:55.966Z,45.13
2019-02-02T06:49:24.369Z,42.10
2019-02-02T06:51:52.781Z,42.17
2019-02-02T06:54:21.166Z,43.57
2019-02-02T06:56:49.587Z,41.00
2019-02-02T06:59:18.000Z,38.93
2019-02-02T07:01:46.373Z,44.37
2019-02-02T07:04:14.779Z,44.90
2019-02-02T07:06:43.330Z,39.73
2019-02-02T07:09:11.738Z,42.43
2019-02-02T07:11:40.118Z,42.00
2019-02-02T07:14:08.531Z,41.47
2019-02-02T07:16:36.936Z,42.93
2019-02-02T07:19:05.321Z,43.27
2019-02-02T07:21:33.725Z,41.97
2019-02-02T07:24:02.107Z,44.10
2019-02-02T07:26:30.511Z,41.90
2019-02-02T07:28:58.892Z,41.20
2019-02-02T07:31:27.303Z,41.67
2019-02-02T07:33:55.698Z,41.47
2019-02-02T07:36:24.104Z,42.93
2019-02-02T07:38:52.518Z,41.73
2019-02-02T07:41:21.071Z,42.33
2019-02-02T07:43:49.492Z,41.17
2019-02-02T07:46:17.986Z,41.13
2019-02-02T07:48:46.394Z,42.70
2019-02-02T07:51:14.780Z,42.90
2019-02-02T07:53:43.150Z,42.30
2019-02-02T07:56:11.571Z,43.07
2019-02-02T07:58:39.970Z,42.57
2019-02-02T08:01:08.367Z,43.73
2019-02-02T08:03:36.753Z,42.77
2019-02-02T08:06:05.170Z,40.90
2019-02-02T08:08:33.540Z,42.93
2019-02-02T08:11:01.961Z,42.73
2019-02-02T08:13:30.370Z,39.40
2019-02-02T08:15:58.771Z,40.07
2019-02-02T08:18:27.182Z,41.37
2019-02-02T08:20:55.578Z,42.47
2019-02-02T08:23:24.026Z,39.97
2019-02-02T08:25:52.367Z,41.87
2019-02-02T08:28:21.734Z,40.87
2019-02-02T08:30:52.571Z,42.77
2019-02-02T08:33:20.407Z,41.43
2019-02-02T08:35:48.786Z,40.23
2019-02-02T08:38:17.193Z,39.80
2019-02-02T08:40:47.487Z,40.90
2019-02-02T08:43:15.864Z,40.10
2019-02-02T08:45:44.244Z,39.90
2019-02-02T08:48:12.644Z,41.03
2019-02-02T08:50:41.074Z,40.27
2019-02-02T08:53:09.400Z,39.97
2019-02-02T08:55:37.858Z,40.13
2019-02-02T08:58:06.316Z,37.20
2019-02-02T09:00:34.682Z,40.47
2019-02-02T09:03:03.062Z,39.00
2019-02-02T09:05:31.471Z,39.60
2019-02-02T09:07:59.809Z,39.63
2019-02-02T09:10:28.912Z,39.20
2019-02-02T09:12:58.031Z,40.40
2019-02-02T09:15:26.496Z,41.27
2019-02-02T09:17:54.907Z,39.50
2019-02-02T09:20:23.288Z,39.67
2019-02-02T09:23:02.713Z,38.53
2019-02-02T09:25:21.718Z,40.40
2019-02-02T09:27:50.123Z,40.93
2019-02-02T09:30:26.680Z,40.20
2019-02-02T09:32:55.509Z,40.50
2019-02-02T09:35:23.867Z,42.33
2019-02-02T09:37:52.270Z,40.53
2019-02-02T09:40:20.759Z,40.37
2019-02-02T09:42:49.134Z,39.87
2019-02-02T09:45:20.245Z,41.93
2019-02-02T09:47:48.659Z,40.97
2019-02-02T09:50:21.610Z,38.60
2019-02-02T09:52:49.993Z,39.07
2019-02-02T09:55:20.249Z,40.73
2019-02-02T09:57:48.751Z,41.60
2019-02-02T10:00:22.879Z,39.50
2019-02-02T10:02:51.314Z,38.70
2019-02-02T10:05:19.725Z,40.53
2019-02-02T10:07:48.344Z,37.70
2019-02-02T10:10:19.554Z,38.70
2019-02-02T10:12:47.963Z,40.80
2019-02-02T10:15:17.181Z,38.40
2019-02-02T10:17:45.588Z,37.10
2019-02-02T10:20:27.670Z,37.23
2019-02-02T10:23:04.448Z,37.07
2019-02-02T10:25:32.833Z,36.30
2019-02-02T10:28:01.296Z,36.00
2019-02-02T10:30:32.974Z,34.87
2019-02-02T10:33:01.365Z,39.17
2019-02-02T10:35:29.825Z,33.83
2019-02-02T10:37:58.227Z,32.43
2019-02-02T10:40:29.770Z,30.57
2019-02-02T10:42:56.660Z,31.70
2019-02-02T10:45:25.026Z,31.43
2019-02-02T10:47:53.438Z,32.73
2019-02-02T10:50:23.152Z,31.97
2019-02-02T10:52:51.555Z,32.80
2019-02-02T10:55:19.978Z,33.07
2019-02-02T10:57:48.454Z,31.93
2019-02-02T11:00:29.194Z,33.00
2019-02-02T11:02:57.602Z,34.87
2019-02-02T11:05:25.982Z,34.80
2019-02-02T11:07:54.943Z,35.87
2019-02-02T11:10:29.118Z,33.30
2019-02-02T11:12:57.613Z,33.30
2019-02-02T11:15:26.076Z,32.83
2019-02-02T11:17:54.442Z,33.33
2019-02-02T11:20:25.518Z,32.57
2019-02-02T11:22:53.993Z,34.47
2019-02-02T11:25:22.370Z,33.83
2019-02-02T11:27:50.847Z,32.57
2019-02-02T11:30:20.387Z,30.83
2019-02-02T11:32:48.776Z,33.20
2019-02-02T11:35:21.022Z,33.23
2019-02-02T11:37:49.427Z,31.37
2019-02-02T11:40:22.809Z,32.40
2019-02-02T11:42:51.190Z,32.13
2019-02-02T11:45:19.654Z,31.90
2019-02-02T11:47:48.116Z,31.10
2019-02-02T11:50:20.744Z,30.67
2019-02-02T11:52:49.115Z,30.20
2019-02-02T11:55:22.362Z,30.80
2019-02-02T11:57:50.842Z,30.77
2019-02-02T12:00:27.090Z,27.93
2019-02-02T12:02:55.493Z,29.67
2019-02-02T12:05:23.874Z,29.83
2019-02-02T12:07:52.275Z,28.77
2019-02-02T12:10:26.364Z,28.37
2019-02-02T12:12:54.763Z,26.57
2019-02-02T12:15:23.183Z,22.90
2019-02-02T12:17:51.567Z,24.47
2019-02-02T12:20:21.617Z,22.53
2019-02-02T12:22:50.018Z,21.77
2019-02-02T12:25:18.432Z,25.10
2019-02-02T12:27:46.802Z,23.57
2019-02-02T12:30:18.017Z,24.60
2019-02-02T12:32:46.401Z,24.80
2019-02-02T12:35:20.258Z,26.40
2019-02-02T12:37:48.763Z,25.30
2019-02-02T12:40:19.268Z,27.63
2019-02-02T12:42:47.590Z,23.20
2019-02-02T12:45:30.881Z,23.63
2019-02-02T12:47:59.274Z,22.73
2019-02-02T12:50:27.683Z,18.90
2019-02-02T12:52:56.079Z,20.53
2019-02-02T12:55:26.071Z,18.47
2019-02-02T12:57:54.668Z,17.43
2019-02-02T13:00:23.079Z,17.80
2019-02-02T13:02:51.556Z,16.90
2019-02-02T13:05:21.593Z,17.53
2019-02-02T13:07:49.971Z,17.23
2019-02-02T13:10:26.731Z,17.07
2019-02-02T13:12:55.094Z,15.77
2019-02-02T13:15:23.560Z,16.73
2019-02-02T13:17:52.020Z,16.37
2019-02-02T13:20:20.407Z,17.70
2019-02-02T13:22:48.806Z,18.70
2019-02-02T13:25:21.796Z,17.27
2019-02-02T13:27:50.179Z,18.67
2019-02-02T13:30:33.222Z,18.33
2019-02-02T13:33:01.628Z,17.13
2019-02-02T13:35:32.753Z,18.27
2019-02-02T13:38:01.159Z,15.17
2019-02-02T13:40:31.926Z,14.83
2019-02-02T13:43:00.420Z,15.27
2019-02-02T13:45:28.903Z,14.20
2019-02-02T13:47:57.280Z,15.23
2019-02-02T13:50:25.716Z,13.43
2019-02-02T13:52:54.100Z,14.30
2019-02-02T13:55:22.492Z,15.50
2019-02-02T13:57:50.877Z,14.00
2019-02-02T14:00:25.513Z,13.87
2019-02-02T14:03:02.410Z,13.77
2019-02-02T14:05:23.934Z,14.90
2019-02-02T14:07:52.610Z,16.60
2019-02-02T14:10:26.460Z,15.87
2019-02-02T14:12:54.887Z,16.67
2019-02-02T14:15:23.316Z,15.90
2019-02-02T14:17:51.693Z,18.63
2019-02-02T14:20:20.080Z,16.57
2019-02-02T14:22:48.474Z,16.63
2019-02-02T14:25:16.984Z,17.20
2019-02-02T14:27:45.386Z,16.73
2019-02-02T14:30:18.826Z,18.20
2019-02-02T14:32:47.220Z,17.37
2019-02-02T14:35:17.667Z,19.53
2019-02-02T14:37:46.048Z,17.33
2019-02-02T14:40:16.914Z,16.50
2019-02-02T14:42:45.262Z,19.03
2019-02-02T14:45:19.011Z,20.00
2019-02-02T14:47:47.396Z,19.07
2019-02-02T14:50:18.910Z,20.33
2019-02-02T14:52:47.863Z,20.53
2019-02-02T14:55:18.260Z,19.80
2019-02-02T14:57:46.669Z,19.87
2019-02-02T15:00:22.355Z,20.40
2019-02-02T15:02:51.039Z,19.83
2019-02-02T15:05:21.042Z,21.03
2019-02-02T15:07:49.471Z,21.13
2019-02-02T15:10:18.452Z,22.20
2019-02-02T15:12:46.803Z,20.47
2019-02-02T15:15:16.350Z,21.73
2019-02-02T15:17:44.800Z,20.67
2019-02-02T15:20:25.157Z,19.57
2019-02-02T15:22:53.566Z,20.30
2019-02-02T15:25:22.951Z,20.23
2019-02-02T15:27:51.382Z,20.07
2019-02-02T15:30:22.698Z,21.43
2019-02-02T15:32:51.110Z,21.87
2019-02-02T15:35:19.500Z,21.70
2019-02-02T15:37:47.911Z,20.60
2019-02-02T15:40:19.546Z,20.03
2019-02-02T15:42:47.943Z,20.47
2019-02-02T15:45:30.745Z,21.13
2019-02-02T15:47:59.155Z,21.47
2019-02-02T15:50:27.525Z,20.83
2019-02-02T15:52:55.906Z,19.77
2019-02-02T15:55:25.037Z,19.03
2019-02-02T15:57:53.383Z,20.03
2019-02-02T16:00:27.458Z,18.23
2019-02-02T16:02:55.844Z,17.83
2019-02-02T16:05:24.886Z,17.73
2019-02-02T16:07:53.348Z,17.93
2019-02-02T16:10:23.984Z,16.97
2019-02-02T16:12:52.425Z,18.10
2019-02-02T16:15:20.815Z,16.47
2019-02-02T16:17:49.213Z,18.73
2019-02-02T16:20:23.029Z,20.60
2019-02-02T16:23:10.943Z,21.53
2019-02-02T16:25:39.326Z,19.10
2019-02-02T16:28:07.829Z,18.70
2019-02-02T16:30:36.267Z,19.93
2019-02-02T16:33:04.746Z,19.47
2019-02-02T16:35:33.167Z,19.57
2019-02-02T16:38:01.571Z,20.70
2019-02-02T16:40:30.890Z,23.07
2019-02-02T16:42:59.296Z,24.40
2019-02-02T16:45:30.322Z,25.47
2019-02-02T16:47:58.747Z,24.03
2019-02-02T16:50:27.162Z,23.37
2019-02-02T16:52:55.534Z,24.80
2019-02-02T16:55:23.932Z,24.10
2019-02-02T16:57:52.303Z,24.50
2019-02-02T17:00:26.911Z,24.47
2019-02-02T17:02:55.369Z,28.27
2019-02-02T17:05:23.757Z,25.23
2019-02-02T17:07:52.167Z,26.10
2019-02-02T17:10:26.215Z,25.73
2019-02-02T17:12:54.620Z,26.17
2019-02-02T17:15:23.021Z,25.83
2019-02-02T17:17:51.428Z,25.63
2019-02-02T17:20:23.169Z,30.67
2019-02-02T17:22:51.585Z,27.37
2019-02-02T17:25:22.643Z,27.97
2019-02-02T17:27:50.955Z,25.80
2019-02-02T17:30:21.495Z,28.37
2019-02-02T17:32:50.714Z,27.73
2019-02-02T17:35:19.121Z,31.37
2019-02-02T17:37:47.524Z,28.97
2019-02-02T17:40:21.663Z,36.83
2019-02-02T17:42:50.073Z,28.30
2019-02-02T17:45:20.303Z,28.50
2019-02-02T17:47:48.966Z,28.53
2019-02-02T17:50:25.466Z,27.77
2019-02-02T17:52:53.889Z,25.43
2019-02-02T17:55:22.255Z,26.37
2019-02-02T17:57:50.668Z,25.57
2019-02-02T18:00:26.526Z,24.00
2019-02-02T18:02:55.063Z,23.23
2019-02-02T18:05:23.423Z,24.03
2019-02-02T18:07:51.829Z,19.90
2019-02-02T18:10:20.233Z,19.53
2019-02-02T18:12:48.612Z,18.97
2019-02-02T18:15:17.005Z,17.30
2019-02-02T18:17:45.420Z,16.77
2019-02-02T18:20:16.627Z,15.93
2019-02-02T18:22:45.035Z,14.03
2019-02-02T18:25:15.073Z,14.80
2019-02-02T18:27:43.455Z,15.83
2019-02-02T18:30:23.366Z,14.57
2019-02-02T18:32:51.771Z,14.33
2019-02-02T18:35:20.157Z,13.93
2019-02-02T18:37:48.550Z,14.30
2019-02-02T18:40:26.219Z,14.13
2019-02-02T18:42:54.598Z,13.57
2019-02-02T18:45:27.878Z,13.20
2019-02-02T18:47:56.356Z,12.93
2019-02-02T18:50:24.760Z,14.10
2019-02-02T18:52:54.895Z,13.70
2019-02-02T18:55:35.616Z,14.27
2019-02-02T18:58:04.234Z,14.17
2019-02-02T19:00:32.642Z,14.67
2019-02-02T19:03:01.033Z,15.10
2019-02-02T19:05:29.455Z,14.80
2019-02-02T19:07:57.823Z,16.10
2019-02-02T19:10:32.052Z,16.13
2019-02-02T19:13:00.430Z,18.30
2019-02-02T19:15:28.822Z,17.50
2019-02-02T19:17:57.212Z,21.13
2019-02-02T19:20:25.598Z,18.57
2019-02-02T19:22:56.867Z,20.57
2019-02-02T19:25:24.028Z,20.87
2019-02-02T19:27:52.451Z,22.90
2019-02-02T19:30:26.937Z,22.20
2019-02-02T19:32:55.378Z,22.70
2019-02-02T19:35:23.762Z,21.93
2019-02-02T19:37:52.173Z,21.47
2019-02-02T19:40:20.574Z,22.07
2019-02-02T19:42:48.951Z,20.63
2019-02-02T19:45:22.759Z,21.43
2019-02-02T19:47:51.143Z,24.67
2019-02-02T19:50:22.783Z,21.17
2019-02-02T19:52:51.195Z,21.73
2019-02-02T19:55:19.915Z,21.70
2019-02-02T19:57:48.294Z,22.17
2019-02-02T20:00:22.487Z,21.07
2019-02-02T20:02:50.888Z,22.13
2019-02-02T20:05:28.279Z,21.37
2019-02-02T20:07:49.356Z,20.23
2019-02-02T20:10:18.398Z,20.33
2019-02-02T20:12:46.779Z,21.37
2019-02-02T20:15:20.567Z,21.00
2019-02-02T20:17:48.966Z,21.87
2019-02-02T20:20:21.997Z,20.57
2019-02-02T20:22:50.722Z,21.57
2019-02-02T20:25:19.126Z,19.73
2019-02-02T20:27:47.502Z,21.43
2019-02-02T20:30:30.264Z,21.93
2019-02-02T20:32:58.642Z,21.53
2019-02-02T20:35:27.279Z,21.50
2019-02-02T20:37:55.684Z,23.67
2019-02-02T20:40:27.300Z,24.20
2019-02-02T20:42:55.709Z,24.13
2019-02-02T20:45:35.152Z,24.57
2019-02-02T20:48:03.531Z,24.13
2019-02-02T20:50:31.913Z,25.63
2019-02-02T20:53:00.308Z,26.90
2019-02-02T20:55:33.887Z,27.90
2019-02-02T20:58:02.288Z,27.27
2019-02-02T21:00:31.508Z,28.73
2019-02-02T21:02:59.907Z,29.90
2019-02-02T21:05:28.287Z,30.00
2019-02-02T21:07:56.678Z,30.50
2019-02-02T21:10:25.575Z,31.07
2019-02-02T21:12:53.922Z,33.03
2019-02-02T21:15:22.340Z,32.67
2019-02-02T21:17:50.804Z,32.63
2019-02-02T21:20:24.443Z,33.23
2019-02-02T21:22:53.033Z,32.30
2019-02-02T21:25:21.412Z,31.07
2019-02-02T21:27:49.827Z,34.07
2019-02-02T21:30:26.419Z,33.73
2019-02-02T21:32:54.847Z,33.20
2019-02-02T21:35:23.530Z,33.10
2019-02-02T21:37:51.939Z,31.93
2019-02-02T21:40:23.231Z,33.63
2019-02-02T21:42:51.608Z,33.87
2019-02-02T21:45:20.014Z,33.10
2019-02-02T21:47:48.404Z,32.10
2019-02-02T21:50:22.079Z,35.70
2019-02-02T21:52:50.461Z,34.43
2019-02-02T21:55:26.967Z,36.17
2019-02-02T21:57:55.311Z,36.93
2019-02-02T22:00:26.298Z,35.43
2019-02-02T22:02:54.726Z,35.23
2019-02-02T22:05:23.107Z,36.63
2019-02-02T22:07:51.525Z,37.50
2019-02-02T22:10:19.927Z,36.43
2019-02-02T22:12:48.339Z,36.97
2019-02-02T22:15:21.574Z,34.53
2019-02-02T22:17:50.030Z,35.97
2019-02-02T22:20:18.865Z,32.70
2019-02-02T22:22:47.203Z,34.07
2019-02-02T22:25:21.670Z,32.63
2019-02-02T22:27:50.133Z,32.63
2019-02-02T22:30:24.547Z,31.20
2019-02-02T22:32:52.898Z,28.87
2019-02-02T22:35:21.310Z,28.40
2019-02-02T22:37:49.689Z,27.30
2019-02-02T22:40:23.688Z,27.93
2019-02-02T22:42:52.080Z,26.33
2019-02-02T22:45:21.344Z,27.23
2019-02-02T22:47:50.102Z,26.97
2019-02-02T22:50:25.852Z,24.67
2019-02-02T22:52:54.239Z,22.53
2019-02-02T22:55:23.561Z,21.90
2019-02-02T22:57:51.967Z,22.83
2019-02-02T23:00:27.693Z,21.40
2019-02-02T23:02:56.122Z,23.03
2019-02-02T23:05:36.363Z,20.23
2019-02-02T23:08:08.110Z,20.47
2019-02-02T23:10:39.749Z,20.23
2019-02-02T23:13:23.515Z,19.90
2019-02-02T23:16:00.830Z,19.47
2019-02-02T23:18:29.236Z,19.63
2019-02-02T23:20:57.620Z,19.67
2019-02-02T23:23:26.324Z,17.60
2019-02-02T23:25:54.703Z,19.17
2019-02-02T23:28:23.104Z,18.97
2019-02-02T23:30:51.474Z,17.50
2019-02-02T23:33:19.875Z,17.40
2019-02-02T23:35:48.314Z,17.30
2019-02-02T23:38:16.899Z,17.40
2019-02-02T23:40:45.304Z,17.97
2019-02-02T23:43:15.421Z,17.07
2019-02-02T23:45:43.773Z,17.97
2019-02-02T23:48:13.058Z,17.23
2019-02-02T23:50:41.438Z,17.13
2019-02-02T23:53:09.842Z,18.27
2019-02-02T23:55:38.215Z,17.13
2019-02-02T23:58:06.610Z,18.13
